^^
Station Historical Data
Daily Summary for March 7, 2018 Units:  Both    English   Metric
« Previous Day
Next Day »
Daily Weekly Monthly Yearly Custom
  High: Low: Average:
Temperature: TemperatureF °F /  -17.8 °C 60.1 °F /  15.6 °C 65.2 °F /  18.4 °C
Dew Point: DewpointF °F /  -17.8 °C 56.7 °F /  13.7 °C 58.5 °F /  14.7 °C
Humidity: Humidity% 66% 78%
Wind Speed: WindSpeedMPHmph /  0km/h - -18.2mph /  -29.3km/h
Wind Gust: WindSpeedGustMPHmph /  0km/h - -
Wind- -
Pressure: PressureIn in /  0 hPa 29.72 in /  1006.3 hPa -
Precipitation: 0.05 in /  1.27 mm    
Historical Graphs
 
 
Tabular Data for March 7, 2018
Time Temperature Dew Point Pressure Wind Wind Speed Wind Gust Humidity Rainfall Rate (Hourly) solar Conditions
TemperatureF °F /  -17.8 °C DewpointF °F /  -17.8 °C PressureInin /  0hPa Calm     Humidity% HourlyPrecipInin /  0mm SoftwareType W/m2 Conditions
09:27 60.1 °F /  15.6 °C 58.6 °F /  14.8 °C 29.80in /  1009hPa North -999.9mph /  -1609.1km/h -999.0mph /  -1607.7km/h 95% 0.00in /  0mm meteobridge W/m2
09:33 60.3 °F /  15.7 °C 58.8 °F /  14.9 °C 29.81in /  1009.4hPa SE 8.1mph /  13km/h 14.0mph /  22.5km/h 95% 0.00in /  0mm meteobridge W/m2
09:39 60.3 °F /  15.7 °C 58.8 °F /  14.9 °C 29.81in /  1009.4hPa SSE 6.9mph /  11.1km/h 12.0mph /  19.3km/h 95% 0.00in /  0mm meteobridge W/m2
09:45 60.4 °F /  15.8 °C 58.6 °F /  14.8 °C 29.81in /  1009.4hPa SSE 8.9mph /  14.3km/h 11.0mph /  17.7km/h 94% 0.00in /  0mm meteobridge W/m2
09:51 61.0 °F /  16.1 °C 59.2 °F /  15.1 °C 29.80in /  1009hPa SE 8.9mph /  14.3km/h 12.0mph /  19.3km/h 94% 0.00in /  0mm meteobridge W/m2
09:57 61.3 °F /  16.3 °C 59.5 °F /  15.3 °C 29.80in /  1009hPa SSE 4.9mph /  7.9km/h 11.0mph /  17.7km/h 94% 0.00in /  0mm meteobridge W/m2
10:03 62.1 °F /  16.7 °C 60.3 °F /  15.7 °C 29.79in /  1008.7hPa South 4.9mph /  7.9km/h 5.0mph /  8km/h 94% 0.00in /  0mm meteobridge W/m2
10:09 62.8 °F /  17.1 °C 61.0 °F /  16.1 °C 29.79in /  1008.7hPa ENE 0.9mph /  1.4km/h 7.0mph /  11.3km/h 94% 0.00in /  0mm meteobridge W/m2
10:16 63.0 °F /  17.2 °C 61.0 °F /  16.1 °C 29.80in /  1009hPa South 2.9mph /  4.7km/h 7.0mph /  11.3km/h 93% 0.00in /  0mm meteobridge W/m2
10:22 64.0 °F /  17.8 °C 61.3 °F /  16.3 °C 29.79in /  1008.7hPa SSE 4.0mph /  6.4km/h 5.0mph /  8km/h 91% 0.00in /  0mm meteobridge W/m2
10:28 64.6 °F /  18.1 °C 61.3 °F /  16.3 °C 29.79in /  1008.7hPa SSE 6.0mph /  9.7km/h 10.0mph /  16.1km/h 89% 0.00in /  0mm meteobridge W/m2
10:34 65.1 °F /  18.4 °C 60.8 °F /  16 °C 29.79in /  1008.7hPa SSW 4.0mph /  6.4km/h 8.0mph /  12.9km/h 86% 0.00in /  0mm meteobridge W/m2
10:40 66.4 °F /  19.1 °C 60.4 °F /  15.8 °C 29.78in /  1008.4hPa SSE 2.0mph /  3.2km/h 3.0mph /  4.8km/h 81% 0.00in /  0mm meteobridge W/m2
10:46 67.5 °F /  19.7 °C 60.4 °F /  15.8 °C 29.79in /  1008.7hPa SSE 6.9mph /  11.1km/h 11.0mph /  17.7km/h 78% 0.00in /  0mm meteobridge W/m2
10:52 67.1 °F /  19.5 °C 59.7 °F /  15.4 °C 29.78in /  1008.4hPa ESE 10.1mph /  16.3km/h 10.1mph /  16.3km/h 77% 0.00in /  0mm meteobridge W/m2
10:58 66.9 °F /  19.4 °C 59.2 °F /  15.1 °C 29.78in /  1008.4hPa South 6.0mph /  9.7km/h 11.0mph /  17.7km/h 76% 0.00in /  0mm meteobridge W/m2
11:04 66.4 °F /  19.1 °C 59.4 °F /  15.2 °C 29.78in /  1008.4hPa SSE 10.1mph /  16.3km/h 10.1mph /  16.3km/h 78% 0.00in /  0mm meteobridge W/m2
11:10 66.9 °F /  19.4 °C 59.2 °F /  15.1 °C 29.79in /  1008.7hPa South 4.9mph /  7.9km/h 8.0mph /  12.9km/h 76% 0.00in /  0mm meteobridge W/m2
11:16 67.3 °F /  19.6 °C 59.5 °F /  15.3 °C 29.79in /  1008.7hPa SSW 4.9mph /  7.9km/h 9.0mph /  14.5km/h 76% 0.00in /  0mm meteobridge W/m2
11:23 66.4 °F /  19.1 °C 57.9 °F /  14.4 °C 29.78in /  1008.4hPa SSE 8.1mph /  13km/h 15.0mph /  24.1km/h 74% 0.00in /  0mm meteobridge W/m2
11:29 65.1 °F /  18.4 °C 56.7 °F /  13.7 °C 29.78in /  1008.4hPa South 6.9mph /  11.1km/h 11.0mph /  17.7km/h 74% 0.00in /  0mm meteobridge W/m2
11:35 65.3 °F /  18.5 °C 57.6 °F /  14.2 °C 29.78in /  1008.4hPa South 4.0mph /  6.4km/h 6.0mph /  9.7km/h 76% 0.00in /  0mm meteobridge W/m2
11:41 66.2 °F /  19 °C 58.8 °F /  14.9 °C 29.78in /  1008.4hPa SSE 4.9mph /  7.9km/h 10.0mph /  16.1km/h 77% 0.00in /  0mm meteobridge W/m2
11:47 66.0 °F /  18.9 °C 57.6 °F /  14.2 °C 29.78in /  1008.4hPa South 4.9mph /  7.9km/h 10.0mph /  16.1km/h 74% 0.00in /  0mm meteobridge W/m2
11:53 66.4 °F /  19.1 °C 57.9 °F /  14.4 °C 29.78in /  1008.4hPa SSW 6.9mph /  11.1km/h 9.0mph /  14.5km/h 74% 0.00in /  0mm meteobridge W/m2
12:00 66.4 °F /  19.1 °C 57.4 °F /  14.1 °C 29.78in /  1008.4hPa South 10.1mph /  16.3km/h 12.0mph /  19.3km/h 73% 0.00in /  0mm meteobridge W/m2
12:06 66.2 °F /  19 °C 57.7 °F /  14.3 °C 29.78in /  1008.4hPa SSE 8.9mph /  14.3km/h 10.0mph /  16.1km/h 74% 0.00in /  0mm meteobridge W/m2
12:12 66.0 °F /  18.9 °C 58.3 °F /  14.6 °C 29.78in /  1008.4hPa SSE 2.9mph /  4.7km/h 11.0mph /  17.7km/h 76% 0.00in /  0mm meteobridge W/m2
12:18 66.7 °F /  19.3 °C 59.4 °F /  15.2 °C 29.78in /  1008.4hPa SSE 2.9mph /  4.7km/h 7.0mph /  11.3km/h 77% 0.00in /  0mm meteobridge W/m2
12:24 67.1 °F /  19.5 °C 59.4 °F /  15.2 °C 29.78in /  1008.4hPa SE 4.9mph /  7.9km/h 8.0mph /  12.9km/h 76% 0.00in /  0mm meteobridge W/m2
12:30 67.6 °F /  19.8 °C 59.4 °F /  15.2 °C 29.78in /  1008.4hPa South 4.9mph /  7.9km/h 12.0mph /  19.3km/h 75% 0.00in /  0mm meteobridge W/m2
12:36 66.7 °F /  19.3 °C 58.1 °F /  14.5 °C 29.78in /  1008.4hPa South 6.0mph /  9.7km/h 9.0mph /  14.5km/h 74% 0.00in /  0mm meteobridge W/m2
12:42 67.3 °F /  19.6 °C 59.5 °F /  15.3 °C 29.77in /  1008hPa SSE 6.9mph /  11.1km/h 11.0mph /  17.7km/h 76% 0.00in /  0mm meteobridge W/m2
12:49 67.5 °F /  19.7 °C 58.8 °F /  14.9 °C 29.77in /  1008hPa South 11.0mph /  17.7km/h 11.0mph /  17.7km/h 74% 0.00in /  0mm meteobridge W/m2
12:55 66.7 °F /  19.3 °C 58.1 °F /  14.5 °C 29.78in /  1008.4hPa SSW 6.9mph /  11.1km/h 13.0mph /  20.9km/h 74% 0.00in /  0mm meteobridge W/m2
13:01 66.4 °F /  19.1 °C 59.0 °F /  15 °C 29.77in /  1008hPa SSW 4.9mph /  7.9km/h 9.0mph /  14.5km/h 77% 0.00in /  0mm meteobridge W/m2
13:07 66.0 °F /  18.9 °C 59.0 °F /  15 °C 29.77in /  1008hPa South 4.9mph /  7.9km/h 11.0mph /  17.7km/h 78% 0.00in /  0mm meteobridge W/m2
13:13 66.2 °F /  19 °C 59.5 °F /  15.3 °C 29.77in /  1008hPa SSW 8.1mph /  13km/h 13.0mph /  20.9km/h 79% 0.00in /  0mm meteobridge W/m2
13:19 66.2 °F /  19 °C 59.5 °F /  15.3 °C 29.77in /  1008hPa SSE 8.9mph /  14.3km/h 12.0mph /  19.3km/h 79% 0.00in /  0mm meteobridge W/m2
13:25 66.9 °F /  19.4 °C 59.2 °F /  15.1 °C 29.76in /  1007.7hPa South 10.1mph /  16.3km/h 19.0mph /  30.6km/h 76% 0.00in /  0mm meteobridge W/m2
13:31 68.5 °F /  20.3 °C 59.2 °F /  15.1 °C 29.75in /  1007.3hPa SSE 6.0mph /  9.7km/h 14.0mph /  22.5km/h 72% 0.00in /  0mm meteobridge W/m2
13:37 67.8 °F /  19.9 °C 57.2 °F /  14 °C 29.75in /  1007.3hPa South 13.0mph /  20.9km/h 19.0mph /  30.6km/h 69% 0.00in /  0mm meteobridge W/m2
13:44 66.7 °F /  19.3 °C 57.0 °F /  13.9 °C 29.75in /  1007.3hPa South 6.0mph /  9.7km/h 12.0mph /  19.3km/h 71% 0.00in /  0mm meteobridge W/m2
13:50 66.6 °F /  19.2 °C 57.6 °F /  14.2 °C 29.76in /  1007.7hPa SSW 6.0mph /  9.7km/h 13.0mph /  20.9km/h 73% 0.00in /  0mm meteobridge W/m2
13:56 66.0 °F /  18.9 °C 58.3 °F /  14.6 °C 29.75in /  1007.3hPa South 2.9mph /  4.7km/h 9.0mph /  14.5km/h 76% 0.00in /  0mm meteobridge W/m2
14:02 66.4 °F /  19.1 °C 59.4 °F /  15.2 °C 29.75in /  1007.3hPa South 4.0mph /  6.4km/h 6.0mph /  9.7km/h 78% 0.00in /  0mm meteobridge W/m2
14:08 66.6 °F /  19.2 °C 58.8 °F /  14.9 °C 29.75in /  1007.3hPa SE 6.9mph /  11.1km/h 11.0mph /  17.7km/h 76% 0.00in /  0mm meteobridge W/m2
14:14 67.3 °F /  19.6 °C 58.6 °F /  14.8 °C 29.75in /  1007.3hPa South 11.0mph /  17.7km/h 18.0mph /  29km/h 74% 0.00in /  0mm meteobridge W/m2
14:20 68.2 °F /  20.1 °C 58.8 °F /  14.9 °C 29.75in /  1007.3hPa South 10.1mph /  16.3km/h 15.0mph /  24.1km/h 72% 0.00in /  0mm meteobridge W/m2
14:26 70.0 °F /  21.1 °C 60.1 °F /  15.6 °C 29.75in /  1007.3hPa South 6.0mph /  9.7km/h 9.0mph /  14.5km/h 71% 0.00in /  0mm meteobridge W/m2
14:32 70.7 °F /  21.5 °C 59.5 °F /  15.3 °C 29.74in /  1007hPa SSE 13.0mph /  20.9km/h 13.0mph /  20.9km/h 68% 0.00in /  0mm meteobridge W/m2
14:39 71.1 °F /  21.7 °C 59.9 °F /  15.5 °C 29.73in /  1006.7hPa SSW 11.0mph /  17.7km/h 16.0mph /  25.7km/h 68% 0.00in /  0mm meteobridge W/m2
14:45 69.4 °F /  20.8 °C 57.6 °F /  14.2 °C 29.74in /  1007hPa South 6.9mph /  11.1km/h 15.0mph /  24.1km/h 66% 0.00in /  0mm meteobridge W/m2
14:51 69.1 °F /  20.6 °C 58.5 °F /  14.7 °C 29.73in /  1006.7hPa South 2.9mph /  4.7km/h 8.0mph /  12.9km/h 69% 0.00in /  0mm meteobridge W/m2
14:57 70.2 °F /  21.2 °C 58.3 °F /  14.6 °C 29.72in /  1006.3hPa SSW 8.9mph /  14.3km/h 13.0mph /  20.9km/h 66% 0.00in /  0mm meteobridge W/m2
15:03 69.3 °F /  20.7 °C 57.4 °F /  14.1 °C 29.72in /  1006.3hPa SSW 10.1mph /  16.3km/h 15.0mph /  24.1km/h 66% 0.00in /  0mm meteobridge W/m2
15:09 69.3 °F /  20.7 °C 57.9 °F /  14.4 °C 29.72in /  1006.3hPa ESE 12.1mph /  19.5km/h 15.0mph /  24.1km/h 67% 0.00in /  0mm meteobridge W/m2
15:15 69.1 °F /  20.6 °C 57.7 °F /  14.3 °C 29.72in /  1006.3hPa SSE 4.0mph /  6.4km/h 14.0mph /  22.5km/h 67% 0.00in /  0mm meteobridge W/m2
15:21 68.7 °F /  20.4 °C 58.1 °F /  14.5 °C 29.72in /  1006.3hPa SE 4.0mph /  6.4km/h 12.0mph /  19.3km/h 69% 0.00in /  0mm meteobridge W/m2
15:28 66.9 °F /  19.4 °C 58.8 °F /  14.9 °C 29.72in /  1006.3hPa SSW 2.9mph /  4.7km/h 5.0mph /  8km/h 75% 0.01in /  0.25mm meteobridge W/m2
15:34 65.8 °F /  18.8 °C 59.2 °F /  15.1 °C 29.72in /  1006.3hPa South 2.0mph /  3.2km/h 4.0mph /  6.4km/h 79% 0.01in /  0.25mm meteobridge W/m2
15:40 65.5 °F /  18.6 °C 59.9 °F /  15.5 °C 29.72in /  1006.3hPa Calm   3.0mph /  4.8km/h 82% 0.01in /  0.25mm meteobridge W/m2
15:46 65.3 °F /  18.5 °C 59.7 °F /  15.4 °C 29.73in /  1006.7hPa South 8.9mph /  14.3km/h 13.0mph /  20.9km/h 82% 0.01in /  0.25mm meteobridge W/m2
15:53 65.7 °F /  18.7 °C 59.7 °F /  15.4 °C 29.73in /  1006.7hPa South 4.0mph /  6.4km/h 12.0mph /  19.3km/h 81% 0.01in /  0.25mm meteobridge W/m2
15:59 66.0 °F /  18.9 °C 60.1 °F /  15.6 °C 29.73in /  1006.7hPa SSE 8.9mph /  14.3km/h 11.0mph /  17.7km/h 81% 0.01in /  0.25mm meteobridge W/m2
16:05 66.2 °F /  19 °C 60.6 °F /  15.9 °C 29.73in /  1006.7hPa South 13.0mph /  20.9km/h 14.0mph /  22.5km/h 82% 0.01in /  0.25mm meteobridge W/m2
16:11 65.5 °F /  18.6 °C 59.9 °F /  15.5 °C 29.74in /  1007hPa SSW 6.0mph /  9.7km/h 14.0mph /  22.5km/h 82% 0.01in /  0.25mm meteobridge W/m2
16:17 64.9 °F /  18.3 °C 59.7 °F /  15.4 °C 29.74in /  1007hPa SSE 6.0mph /  9.7km/h 16.0mph /  25.7km/h 83% 0.01in /  0.25mm meteobridge W/m2
16:23 64.2 °F /  17.9 °C 59.4 °F /  15.2 °C 29.75in /  1007.3hPa SW 6.9mph /  11.1km/h 12.0mph /  19.3km/h 84% 0.01in /  0.25mm meteobridge W/m2
16:29 63.9 °F /  17.7 °C 59.2 °F /  15.1 °C 29.74in /  1007hPa South 4.9mph /  7.9km/h 11.0mph /  17.7km/h 85% 0.00in /  0mm meteobridge W/m2
16:35 63.5 °F /  17.5 °C 58.8 °F /  14.9 °C 29.74in /  1007hPa South 2.9mph /  4.7km/h 6.0mph /  9.7km/h 85% 0.00in /  0mm meteobridge W/m2
16:41 63.9 °F /  17.7 °C 59.5 °F /  15.3 °C 29.73in /  1006.7hPa SSE 2.9mph /  4.7km/h 9.0mph /  14.5km/h 86% 0.00in /  0mm meteobridge W/m2
16:47 64.6 °F /  18.1 °C 60.6 °F /  15.9 °C 29.73in /  1006.7hPa SSE 4.9mph /  7.9km/h 10.0mph /  16.1km/h 87% 0.00in /  0mm meteobridge W/m2
16:53 65.7 °F /  18.7 °C 61.7 °F /  16.5 °C 29.73in /  1006.7hPa SSW 4.9mph /  7.9km/h 9.0mph /  14.5km/h 87% 0.00in /  0mm meteobridge W/m2
17:00 66.2 °F /  19 °C 61.2 °F /  16.2 °C 29.73in /  1006.7hPa South 2.9mph /  4.7km/h 9.0mph /  14.5km/h 84% 0.00in /  0mm meteobridge W/m2
17:06 66.2 °F /  19 °C 60.3 °F /  15.7 °C 29.73in /  1006.7hPa SSE 4.9mph /  7.9km/h 10.0mph /  16.1km/h 81% 0.00in /  0mm meteobridge W/m2
17:12 66.0 °F /  18.9 °C 60.1 °F /  15.6 °C 29.73in /  1006.7hPa South 4.9mph /  7.9km/h 7.0mph /  11.3km/h 81% 0.00in /  0mm meteobridge W/m2
17:18 65.3 °F /  18.5 °C 59.4 °F /  15.2 °C 29.73in /  1006.7hPa SSE 4.0mph /  6.4km/h 9.0mph /  14.5km/h 81% 0.01in /  0.25mm meteobridge W/m2
17:24 64.6 °F /  18.1 °C 59.7 °F /  15.4 °C 29.73in /  1006.7hPa SSE 4.0mph /  6.4km/h 7.0mph /  11.3km/h 84% 0.02in /  0.51mm meteobridge W/m2
17:31 64.6 °F /  18.1 °C 59.7 °F /  15.4 °C 29.73in /  1006.7hPa SSE 2.0mph /  3.2km/h 2.0mph /  3.2km/h 84% 0.03in /  0.76mm meteobridge W/m2
17:38 64.6 °F /  18.1 °C 59.7 °F /  15.4 °C 29.75in /  1007.3hPa SSE 2.0mph /  3.2km/h -999.0mph /  -1607.7km/h 84% 0.03in /  0.76mm meteobridge W/m2
17:43 64.6 °F /  18.1 °C 59.7 °F /  15.4 °C 29.75in /  1007.3hPa North -999.9mph /  -1609.1km/h -999.0mph /  -1607.7km/h 84% 0.03in /  0.76mm meteobridge W/m2
Regenstein, Windhoek, Namibia
Compliments of Weather Underground - 2.5 mb